Time;durP1;ratioP1;P1;durP2;ratioP2;P2;SDS_P1;SDS_P2;PMS_P1;PMS_P2;Temp;Humidity;BMP_temperature;BMP_pressure;BME280_temperature;BME280_humidity;BME280_pressure;Samples;Min_cycle;Max_cycle;Signal;HPM_P1;HPM_P2
2021/12/02 00:00:43;;;;;;;10.60;3.80;;;8.60;99.90;;;;;;4911101;29;20205;-33
2021/12/02 00:03:12;;;;;;;7.23;3.40;;;8.50;99.90;;;;;;4911840;29;20273;-33
2021/12/02 00:05:40;;;;;;;8.47;3.83;;;8.50;99.90;;;;;;4904782;29;20257;-33
2021/12/02 00:08:08;;;;;;;10.00;4.20;;;8.60;99.90;;;;;;4891875;29;20237;-33
2021/12/02 00:10:40;;;;;;;9.23;4.80;;;8.60;99.90;;;;;;4875700;29;20209;-33
2021/12/02 00:13:09;;;;;;;10.03;3.87;;;8.60;99.90;;;;;;4891530;29;20237;-32
2021/12/02 00:21:05;;;;;;;9.97;3.60;;;8.60;99.90;;;;;;4876644;29;20234;-33
2021/12/02 00:23:59;;;;;;;7.17;3.57;;;8.60;99.90;;;;;;4890708;29;20379;-33
2021/12/02 00:26:28;;;;;;;7.23;3.47;;;8.60;99.90;;;;;;4892804;29;20268;-33
2021/12/02 00:28:58;;;;;;;7.97;3.37;;;8.60;99.90;;;;;;4894905;29;20202;-33
2021/12/02 00:31:29;;;;;;;6.60;2.90;;;8.60;99.90;;;;;;4894462;29;20202;-33
2021/12/02 00:34:02;;;;;;;6.27;3.10;;;8.60;99.90;;;;;;4895605;29;20673;-33
2021/12/02 00:36:32;;;;;;;6.47;2.27;;;8.50;99.90;;;;;;4894511;29;20645;-33
2021/12/02 00:39:11;;;;;;;8.53;3.37;;;8.50;99.90;;;;;;4877821;29;20206;-32
2021/12/02 00:41:38;;;;;;;6.97;2.80;;;8.50;99.90;;;;;;4895916;29;20202;-32
2021/12/02 00:44:06;;;;;;;9.07;3.07;;;8.50;99.90;;;;;;4894651;29;20252;-32
2021/12/02 00:46:35;;;;;;;6.10;2.47;;;8.40;99.90;;;;;;4878951;29;20209;-32
2021/12/02 00:49:11;;;;;;;7.47;2.90;;;8.40;99.90;;;;;;4893834;29;20672;-33
2021/12/02 00:51:40;;;;;;;5.43;2.83;;;8.40;99.90;;;;;;4896446;29;20238;-33
2021/12/02 00:54:10;;;;;;;6.97;2.30;;;8.40;99.90;;;;;;4894994;29;20251;-33
2021/12/02 00:56:39;;;;;;;6.37;2.67;;;8.40;99.90;;;;;;4895366;29;20209;-33
2021/12/02 00:59:10;;;;;;;5.67;2.67;;;8.30;99.90;;;;;;4894365;29;20202;-33
2021/12/02 01:01:38;;;;;;;7.10;2.87;;;8.30;99.90;;;;;;4895160;29;20353;-33
2021/12/02 01:04:15;;;;;;;9.73;3.40;;;8.30;99.90;;;;;;4895019;29;20559;-33
2021/12/02 01:06:43;;;;;;;9.57;3.37;;;8.30;99.90;;;;;;4895170;29;20202;-32
2021/12/02 01:09:12;;;;;;;6.47;2.73;;;8.30;99.90;;;;;;4894242;29;20224;-32
2021/12/02 01:11:45;;;;;;;5.60;2.60;;;8.30;99.90;;;;;;4894101;29;20210;-33
2021/12/02 01:14:13;;;;;;;8.53;2.83;;;8.30;99.90;;;;;;4894248;29;20218;-33
2021/12/02 01:16:40;;;;;;;7.47;3.13;;;8.20;99.90;;;;;;4893586;29;20201;-33
2021/12/02 01:19:09;;;;;;;6.73;2.90;;;8.30;99.90;;;;;;4874704;29;20297;-33
2021/12/02 01:21:38;;;;;;;8.70;3.10;;;8.20;99.90;;;;;;4876074;29;20209;-31
2021/12/02 01:24:09;;;;;;;6.97;2.90;;;8.20;99.90;;;;;;4875552;29;20298;-31
2021/12/02 01:26:36;;;;;;;5.60;2.10;;;8.20;99.90;;;;;;4876720;29;20295;-32
2021/12/02 01:29:05;;;;;;;8.10;2.10;;;8.20;99.90;;;;;;4875662;29;20496;-32
2021/12/02 01:31:36;;;;;;;3.90;1.43;;;8.20;99.90;;;;;;4888499;29;20329;-32
2021/12/02 01:34:08;;;;;;;5.47;1.60;;;8.20;99.90;;;;;;4894702;29;20209;-32
2021/12/02 01:36:38;;;;;;;6.53;2.17;;;8.20;99.90;;;;;;4878159;29;20235;-32
2021/12/02 01:39:07;;;;;;;6.63;2.10;;;8.10;99.90;;;;;;4893172;29;20572;-32
2021/12/02 01:41:46;;;;;;;6.57;2.43;;;8.10;99.90;;;;;;4893465;29;20202;-31
2021/12/02 01:44:19;;;;;;;8.17;2.30;;;8.10;99.90;;;;;;4894234;29;20213;-32
2021/12/02 01:46:48;;;;;;;6.67;2.30;;;8.00;99.90;;;;;;4893245;29;20209;-32
2021/12/02 01:49:22;;;;;;;8.70;2.10;;;8.00;99.90;;;;;;4888482;29;20213;-32
2021/12/02 01:51:52;;;;;;;5.50;2.00;;;8.00;99.90;;;;;;4893934;29;20214;-32
2021/12/02 01:54:21;;;;;;;8.00;2.50;;;8.00;99.90;;;;;;4877247;29;20712;-32
2021/12/02 01:57:31;;;;;;;5.87;2.07;;;8.00;99.90;;;;;;4893782;29;20252;-32
2021/12/02 02:00:18;;;;;;;7.23;2.23;;;7.90;99.90;;;;;;4881953;29;20209;-32
2021/12/02 02:02:47;;;;;;;7.70;2.90;;;7.90;99.90;;;;;;4893918;29;20327;-32
2021/12/02 02:05:17;;;;;;;8.90;2.70;;;7.90;99.90;;;;;;4892603;29;20205;-32
2021/12/02 02:07:54;;;;;;;8.17;2.90;;;7.90;99.90;;;;;;4881633;29;20220;-33
2021/12/02 02:10:22;;;;;;;9.17;3.40;;;7.90;99.90;;;;;;4892856;29;20645;-32
2021/12/02 02:12:49;;;;;;;10.83;3.50;;;7.80;99.90;;;;;;4893072;29;20248;-32
2021/12/02 02:15:19;;;;;;;9.40;3.40;;;7.80;99.90;;;;;;4877431;29;20392;-32
2021/12/02 02:18:29;;;;;;;10.50;3.00;;;7.80;99.90;;;;;;4893512;29;20210;-32
2021/12/02 02:20:43;;;;;;;13.53;3.67;;;7.80;99.90;;;;;;4884349;29;20218;-31
2021/12/02 02:23:12;;;;;;;11.77;3.80;;;7.80;99.90;;;;;;4892968;29;20819;-32
2021/12/02 02:25:42;;;;;;;13.60;4.00;;;7.80;99.90;;;;;;4893742;29;20202;-32
2021/12/02 02:28:10;;;;;;;16.13;4.20;;;7.70;99.90;;;;;;4892872;29;20217;-32
2021/12/02 02:30:37;;;;;;;14.27;3.50;;;7.80;99.90;;;;;;4895506;29;20673;-32
2021/12/02 02:33:05;;;;;;;13.10;3.70;;;7.70;99.90;;;;;;4893397;29;20236;-32
2021/12/02 02:35:32;;;;;;;10.57;3.30;;;7.70;99.90;;;;;;4876462;29;20226;-32
2021/12/02 02:38:00;;;;;;;15.00;3.33;;;7.70;99.90;;;;;;4892863;29;20218;-31
2021/12/02 02:40:30;;;;;;;9.93;2.93;;;7.70;99.90;;;;;;4910389;29;20637;-33
2021/12/02 02:43:05;;;;;;;8.60;2.57;;;7.70;99.90;;;;;;4893898;29;20624;-32
2021/12/02 02:45:33;;;;;;;10.33;2.83;;;7.70;99.90;;;;;;4912274;29;20235;-32
2021/12/02 02:48:03;;;;;;;9.73;2.67;;;7.60;99.90;;;;;;4892735;29;20213;-32
2021/12/02 02:50:32;;;;;;;8.07;2.43;;;7.60;99.90;;;;;;4858124;29;20206;-32
2021/12/02 02:53:04;;;;;;;11.93;2.63;;;7.60;99.90;;;;;;4872737;29;20746;-33
2021/12/02 02:55:35;;;;;;;9.47;2.27;;;7.60;99.90;;;;;;4880647;29;20732;-32
2021/12/02 03:00:38;;;;;;;6.30;1.80;;;7.60;99.90;;;;;;4893570;29;20289;-32
2021/12/02 03:08:21;;;;;;;7.30;1.60;;;7.50;99.90;;;;;;4911526;29;20374;-34
2021/12/02 03:10:54;;;;;;;6.77;1.60;;;7.50;99.90;;;;;;4896011;29;20307;-33
2021/12/02 03:13:37;;;;;;;7.97;1.57;;;7.50;99.90;;;;;;4898529;29;20646;-32
2021/12/02 03:18:52;;;;;;;8.60;2.43;;;7.40;99.90;;;;;;4889843;29;20522;-29
2021/12/02 03:21:21;;;;;;;12.20;3.20;;;7.40;99.90;;;;;;4874875;29;20209;-30
2021/12/02 03:23:56;;;;;;;9.97;2.93;;;7.40;99.90;;;;;;4873993;29;20207;-28
2021/12/02 03:26:28;;;;;;;12.23;2.63;;;7.40;99.90;;;;;;4873053;29;20217;-29
2021/12/02 03:28:55;;;;;;;10.50;2.40;;;7.40;99.90;;;;;;4874613;29;20214;-29
2021/12/02 03:31:22;;;;;;;8.17;2.60;;;7.40;99.90;;;;;;4895112;29;20213;-30
2021/12/02 03:33:53;;;;;;;11.83;3.33;;;7.30;99.90;;;;;;4911255;29;20213;-27
2021/12/02 03:36:21;;;;;;;11.27;2.20;;;7.30;99.90;;;;;;4894623;29;20241;-28
2021/12/02 03:38:49;;;;;;;6.63;2.30;;;7.30;99.90;;;;;;4911164;29;20327;-29
2021/12/02 03:41:16;;;;;;;5.60;2.20;;;7.30;99.90;;;;;;4894570;29;20197;-28
2021/12/02 03:43:48;;;;;;;8.53;2.23;;;7.30;99.90;;;;;;4911039;29;20201;-28
2021/12/02 03:46:19;;;;;;;8.83;2.00;;;7.30;99.90;;;;;;4905832;29;20214;-29
2021/12/02 03:48:47;;;;;;;12.67;1.90;;;7.20;99.90;;;;;;4892497;29;20229;-28
2021/12/02 03:51:15;;;;;;;6.50;1.80;;;7.20;99.90;;;;;;4892801;29;20212;-28
2021/12/02 03:53:45;;;;;;;5.60;1.80;;;7.20;99.90;;;;;;4890675;29;20225;-29
2021/12/02 03:56:13;;;;;;;5.10;1.47;;;7.20;99.90;;;;;;4896364;29;20586;-28
2021/12/02 03:58:42;;;;;;;5.30;1.40;;;7.20;99.90;;;;;;4895743;29;20213;-29
2021/12/02 04:01:11;;;;;;;5.47;1.50;;;7.20;99.90;;;;;;4896509;29;20241;-30
2021/12/02 04:03:39;;;;;;;6.13;1.40;;;7.20;99.90;;;;;;4896583;29;20304;-28
2021/12/02 04:06:07;;;;;;;4.50;1.50;;;7.10;99.90;;;;;;4896563;29;20225;-28
2021/12/02 04:11:28;;;;;;;3.90;1.07;;;7.10;99.90;;;;;;4896325;29;20206;-28
2021/12/02 04:14:07;;;;;;;2.93;0.70;;;7.10;99.90;;;;;;4894129;29;20221;-29
2021/12/02 04:16:37;;;;;;;2.67;0.77;;;7.10;99.90;;;;;;4896172;29;20241;-27
2021/12/02 04:19:12;;;;;;;4.63;1.80;;;7.10;99.90;;;;;;4890978;29;20699;-29
2021/12/02 04:21:39;;;;;;;3.10;1.00;;;7.10;99.90;;;;;;4892009;29;20206;-29
2021/12/02 04:24:09;;;;;;;2.53;0.60;;;7.10;99.90;;;;;;4895727;29;20740;-29
2021/12/02 04:26:36;;;;;;;3.50;0.60;;;7.00;99.90;;;;;;4896352;29;20211;-29
2021/12/02 04:29:04;;;;;;;3.57;0.50;;;7.00;99.90;;;;;;4895306;29;20264;-30
2021/12/02 04:31:31;;;;;;;1.43;0.47;;;6.90;99.90;;;;;;4879343;29;20618;-28
2021/12/02 04:34:01;;;;;;;1.80;0.30;;;6.90;99.90;;;;;;4895581;29;20225;-29
2021/12/02 04:36:28;;;;;;;2.57;0.60;;;6.90;99.90;;;;;;4895718;29;20233;-29
2021/12/02 04:38:55;;;;;;;5.93;0.70;;;6.90;99.90;;;;;;4878246;29;20543;-28
2021/12/02 04:41:23;;;;;;;1.20;0.33;;;6.80;99.90;;;;;;4896003;29;20205;-27
2021/12/02 04:43:50;;;;;;;1.70;0.37;;;6.80;99.90;;;;;;4894795;29;20217;-29
2021/12/02 04:46:17;;;;;;;3.40;0.83;;;6.80;99.90;;;;;;4895938;29;20213;-29
2021/12/02 04:48:45;;;;;;;3.17;1.13;;;6.80;99.90;;;;;;4895003;29;20273;-28
2021/12/02 04:51:12;;;;;;;3.83;0.90;;;6.80;99.90;;;;;;4893960;29;20655;-27
2021/12/02 04:53:40;;;;;;;1.83;0.87;;;6.80;99.90;;;;;;4894741;29;20206;-28
2021/12/02 04:56:07;;;;;;;2.43;0.70;;;6.80;99.90;;;;;;4895552;29;20225;-28
2021/12/02 04:58:34;;;;;;;2.27;0.93;;;6.70;99.90;;;;;;4894512;29;20229;-30
2021/12/02 05:01:02;;;;;;;2.20;0.70;;;6.70;99.90;;;;;;4897197;29;20258;-29
2021/12/02 05:03:29;;;;;;;3.80;0.90;;;6.70;99.90;;;;;;4913777;29;20312;-33
2021/12/02 05:05:56;;;;;;;4.10;1.40;;;6.70;99.90;;;;;;4914014;29;20212;-28
2021/12/02 05:08:23;;;;;;;4.37;1.90;;;6.70;99.90;;;;;;4913599;29;20217;-29
2021/12/02 05:10:51;;;;;;;4.57;2.40;;;6.70;99.90;;;;;;4913098;29;20208;-30
2021/12/02 05:13:18;;;;;;;5.83;2.80;;;6.70;99.90;;;;;;4902265;29;20893;-32
2021/12/02 05:15:46;;;;;;;6.23;2.90;;;6.60;99.90;;;;;;4914192;29;20315;-33
2021/12/02 05:18:15;;;;;;;7.77;3.47;;;6.60;99.90;;;;;;4913705;29;20301;-31
2021/12/02 05:20:46;;;;;;;8.17;3.10;;;6.50;99.90;;;;;;4894624;29;20282;-32
2021/12/02 05:23:13;;;;;;;10.77;3.40;;;6.50;99.90;;;;;;4877562;29;20269;-33
2021/12/02 05:25:44;;;;;;;7.23;3.13;;;6.40;99.90;;;;;;4878210;29;20218;-33
2021/12/02 05:28:14;;;;;;;5.97;2.90;;;6.40;99.90;;;;;;4893894;29;20220;-33
2021/12/02 05:30:42;;;;;;;5.97;2.37;;;6.40;99.90;;;;;;4894784;29;20766;-32
2021/12/02 05:33:09;;;;;;;7.43;2.70;;;6.40;99.90;;;;;;4894453;29;20320;-32
2021/12/02 05:35:36;;;;;;;8.40;2.83;;;6.30;99.90;;;;;;4894839;29;20292;-33
2021/12/02 05:38:06;;;;;;;4.97;2.30;;;6.30;99.90;;;;;;4894411;29;20585;-32
2021/12/02 05:40:36;;;;;;;8.10;2.43;;;6.30;99.90;;;;;;4894872;29;20928;-33
2021/12/02 05:43:06;;;;;;;5.90;2.37;;;6.30;99.90;;;;;;4876567;29;20349;-33
2021/12/02 05:45:34;;;;;;;4.93;1.80;;;6.30;99.90;;;;;;4894719;29;20214;-33
2021/12/02 05:48:03;;;;;;;5.47;1.90;;;6.20;99.90;;;;;;4877498;29;20226;-32
2021/12/02 05:50:30;;;;;;;3.37;1.30;;;6.20;99.90;;;;;;4884478;29;20258;-32
2021/12/02 05:52:58;;;;;;;4.50;1.20;;;6.20;99.90;;;;;;4874877;29;20206;-32
2021/12/02 05:55:25;;;;;;;4.87;1.07;;;6.10;99.90;;;;;;4875587;29;20238;-33
2021/12/02 05:57:52;;;;;;;4.00;0.90;;;6.10;99.90;;;;;;4878867;29;20612;-33
2021/12/02 06:00:19;;;;;;;2.60;0.57;;;6.10;99.90;;;;;;4892779;29;20209;-32
2021/12/02 06:02:47;;;;;;;6.00;1.00;;;6.10;99.90;;;;;;4885607;29;20559;-32
2021/12/02 06:05:19;;;;;;;6.10;0.90;;;6.10;99.90;;;;;;4890091;29;20213;-32
2021/12/02 06:07:53;;;;;;;3.60;0.60;;;6.10;99.90;;;;;;4882636;29;20252;-33
2021/12/02 06:10:20;;;;;;;2.27;0.40;;;6.00;99.90;;;;;;4872930;29;20197;-32
2021/12/02 06:12:50;;;;;;;1.80;0.40;;;6.00;99.90;;;;;;4887288;29;20618;-32
2021/12/02 06:15:18;;;;;;;5.10;0.60;;;5.90;99.90;;;;;;4886931;29;20229;-33
2021/12/02 06:17:48;;;;;;;16.73;2.93;;;5.90;99.90;;;;;;4884255;29;20230;-32
2021/12/02 06:20:19;;;;;;;7.87;1.30;;;5.90;99.90;;;;;;4887269;29;20212;-32
2021/12/02 06:22:47;;;;;;;4.77;1.00;;;5.90;99.90;;;;;;4885024;29;20251;-32
2021/12/02 06:27:53;;;;;;;5.70;0.70;;;5.80;99.90;;;;;;4892828;29;20240;-33
2021/12/02 06:30:26;;;;;;;3.97;0.60;;;5.90;99.90;;;;;;4876829;29;20715;-33
2021/12/02 06:32:56;;;;;;;3.03;0.60;;;5.90;99.90;;;;;;4893300;29;20213;-32
2021/12/02 06:35:23;;;;;;;1.83;0.40;;;5.80;99.90;;;;;;4893875;29;20218;-32
2021/12/02 06:37:52;;;;;;;3.80;0.50;;;5.80;99.90;;;;;;4892761;29;20240;-31
2021/12/02 06:40:19;;;;;;;3.17;0.53;;;5.80;99.90;;;;;;4893131;29;20684;-33
2021/12/02 06:42:49;;;;;;;2.73;0.60;;;5.80;99.90;;;;;;4892118;29;20293;-32
2021/12/02 06:45:16;;;;;;;5.83;1.03;;;5.80;99.90;;;;;;4895083;29;20202;-33
2021/12/02 06:47:47;;;;;;;5.20;0.93;;;5.80;99.90;;;;;;4894418;29;20598;-32
2021/12/02 06:50:18;;;;;;;1.90;0.87;;;5.70;99.90;;;;;;4889202;29;20206;-32
2021/12/02 06:52:47;;;;;;;1.63;0.60;;;5.70;99.90;;;;;;4899252;29;20236;-33
2021/12/02 06:55:15;;;;;;;1.73;0.70;;;5.70;99.90;;;;;;4895856;29;20625;-33
2021/12/02 06:57:48;;;;;;;3.70;1.00;;;5.70;99.90;;;;;;4880901;29;20241;-32
2021/12/02 07:00:18;;;;;;;3.97;1.20;;;5.60;99.90;;;;;;4907772;29;20676;-33
2021/12/02 07:02:46;;;;;;;3.87;1.33;;;5.60;99.90;;;;;;4887810;29;20722;-32
2021/12/02 07:05:16;;;;;;;4.20;1.20;;;5.60;99.90;;;;;;4891109;29;20205;-32
2021/12/02 07:07:45;;;;;;;5.13;1.27;;;5.60;99.90;;;;;;4896595;29;20213;-32
2021/12/02 07:10:23;;;;;;;4.93;1.10;;;5.60;99.90;;;;;;4891109;29;20757;-32
2021/12/02 07:12:57;;;;;;;3.30;1.53;;;5.50;99.90;;;;;;4882882;29;20205;-33
2021/12/02 07:15:41;;;;;;;4.23;1.83;;;5.50;99.90;;;;;;4875963;29;20293;-33
2021/12/02 07:18:13;;;;;;;10.43;2.60;;;5.50;99.90;;;;;;4892172;29;20228;-33
2021/12/02 07:20:42;;;;;;;5.40;2.13;;;5.50;99.90;;;;;;4880839;29;20210;-33
2021/12/02 07:23:12;;;;;;;8.17;3.20;;;5.50;99.90;;;;;;4873608;29;20210;-33
2021/12/02 07:25:42;;;;;;;6.53;2.80;;;5.50;99.90;;;;;;4874457;29;20297;-33
2021/12/02 07:28:11;;;;;;;8.83;2.97;;;5.50;99.90;;;;;;4883405;29;20788;-33
2021/12/02 07:30:39;;;;;;;10.40;3.53;;;5.50;99.90;;;;;;4893414;29;20261;-32
2021/12/02 07:33:10;;;;;;;14.43;3.93;;;5.60;99.90;;;;;;4893092;29;20217;-32
2021/12/02 07:35:37;;;;;;;12.23;3.83;;;5.60;99.90;;;;;;4875757;29;20225;-33
2021/12/02 07:38:07;;;;;;;13.47;3.50;;;5.60;99.90;;;;;;4884006;29;20264;-33
2021/12/02 07:40:36;;;;;;;16.37;3.53;;;5.60;99.90;;;;;;4887591;29;20304;-31
2021/12/02 07:43:04;;;;;;;14.77;2.43;;;5.60;99.90;;;;;;4892025;29;20599;-33
2021/12/02 07:45:36;;;;;;;6.13;0.90;;;5.60;99.90;;;;;;4893523;29;20692;-32
2021/12/02 07:48:05;;;;;;;1.47;0.40;;;5.60;99.90;;;;;;4889708;29;20202;-33
2021/12/02 07:50:36;;;;;;;0.80;0.33;;;5.50;99.90;;;;;;4891776;29;20779;-32
2021/12/02 07:53:09;;;;;;;2.90;0.50;;;5.40;99.90;;;;;;4880000;29;20214;-33
2021/12/02 07:55:39;;;;;;;1.17;0.20;;;5.30;99.90;;;;;;4890009;29;20248;-34
2021/12/02 07:58:09;;;;;;;0.33;0.20;;;5.20;99.90;;;;;;4888107;29;20973;-33
2021/12/02 08:00:37;;;;;;;0.60;0.20;;;5.10;99.90;;;;;;4884308;29;20209;-34
2021/12/02 08:03:10;;;;;;;1.93;0.40;;;5.00;99.90;;;;;;4893083;29;20232;-35
2021/12/02 08:05:38;;;;;;;2.67;0.40;;;4.80;99.90;;;;;;4879995;29;20292;-33
2021/12/02 08:08:08;;;;;;;0.50;0.20;;;4.70;99.90;;;;;;4879038;29;20297;-35
2021/12/02 08:10:38;;;;;;;0.30;0.27;;;4.70;99.90;;;;;;4883044;29;20293;-34
2021/12/02 08:13:08;;;;;;;1.20;0.33;;;4.60;99.90;;;;;;4890466;29;20213;-35
2021/12/02 08:15:36;;;;;;;0.60;0.23;;;4.60;99.90;;;;;;4892483;29;20574;-35
2021/12/02 08:18:03;;;;;;;0.47;0.20;;;4.50;99.90;;;;;;4892482;29;20746;-34
2021/12/02 08:20:31;;;;;;;0.50;0.20;;;4.50;99.90;;;;;;4875933;29;20616;-34
2021/12/02 08:23:04;;;;;;;0.70;0.30;;;4.50;99.90;;;;;;4892301;29;20337;-34
2021/12/02 08:25:32;;;;;;;0.97;0.50;;;4.40;99.90;;;;;;4888694;29;20580;-34
2021/12/02 08:28:00;;;;;;;0.87;0.40;;;4.40;99.90;;;;;;4874852;29;20538;-33
2021/12/02 08:30:30;;;;;;;2.40;0.60;;;4.40;99.90;;;;;;4892801;29;20221;-33
2021/12/02 08:33:01;;;;;;;2.37;0.70;;;4.40;99.90;;;;;;4892157;29;20470;-34
2021/12/02 08:35:29;;;;;;;5.87;1.20;;;4.40;99.90;;;;;;4893087;29;20261;-34
2021/12/02 08:38:03;;;;;;;2.70;0.97;;;4.40;99.90;;;;;;4886594;29;20273;-33
2021/12/02 08:40:32;;;;;;;0.90;0.60;;;4.40;99.90;;;;;;4911935;29;20586;-34
2021/12/02 08:43:04;;;;;;;0.70;0.50;;;4.40;99.90;;;;;;4907958;29;20225;-34
2021/12/02 08:45:33;;;;;;;1.47;0.50;;;4.40;99.90;;;;;;4896548;29;20621;-35
2021/12/02 08:48:04;;;;;;;0.77;0.50;;;4.40;99.90;;;;;;4889704;29;20214;-34
2021/12/02 08:50:33;;;;;;;0.53;0.40;;;4.40;99.90;;;;;;4860333;29;20210;-34
2021/12/02 08:53:02;;;;;;;1.10;0.57;;;4.40;99.90;;;;;;4879685;29;20301;-34
2021/12/02 08:55:30;;;;;;;2.10;0.83;;;4.40;99.90;;;;;;4876756;29;20765;-34
2021/12/02 08:57:59;;;;;;;1.63;0.50;;;4.40;99.90;;;;;;4874477;29;20784;-34
2021/12/02 09:00:33;;;;;;;1.20;0.70;;;4.50;99.90;;;;;;4881142;29;20206;-34
2021/12/02 09:03:08;;;;;;;1.80;0.50;;;4.50;99.90;;;;;;4895216;29;20728;-33
2021/12/02 09:05:39;;;;;;;0.97;0.60;;;4.60;99.90;;;;;;4895392;29;20237;-34
2021/12/02 09:08:06;;;;;;;2.17;0.60;;;4.60;99.90;;;;;;4877850;29;20206;-35
2021/12/02 09:10:35;;;;;;;3.07;0.67;;;4.60;99.90;;;;;;4895443;29;20217;-34
2021/12/02 09:13:07;;;;;;;3.70;0.97;;;4.60;99.90;;;;;;4894836;29;20209;-33
2021/12/02 09:15:37;;;;;;;1.90;0.63;;;4.60;99.90;;;;;;4895130;29;20220;-33
2021/12/02 09:18:04;;;;;;;5.30;0.90;;;4.70;99.90;;;;;;4895057;29;20312;-34
2021/12/02 09:20:32;;;;;;;3.60;1.20;;;4.70;99.90;;;;;;4895050;29;20232;-35
2021/12/02 09:22:59;;;;;;;3.60;0.90;;;4.70;99.90;;;;;;4901665;29;20209;-34
2021/12/02 09:25:27;;;;;;;2.57;0.70;;;4.70;99.90;;;;;;4909873;29;20214;-34
2021/12/02 09:27:55;;;;;;;1.63;0.90;;;4.70;99.90;;;;;;4893522;29;20233;-34
2021/12/02 09:30:25;;;;;;;2.83;0.93;;;4.70;99.90;;;;;;4894861;29;20229;-33
2021/12/02 09:32:53;;;;;;;1.93;0.93;;;4.80;99.90;;;;;;4894237;29;20631;-34
2021/12/02 09:35:21;;;;;;;2.77;1.13;;;4.80;99.90;;;;;;4894729;29;20304;-33
2021/12/02 09:37:49;;;;;;;3.97;1.40;;;4.80;99.90;;;;;;4877299;29;20252;-33
2021/12/02 09:40:17;;;;;;;1.77;1.10;;;4.80;99.90;;;;;;4893348;29;20677;-34
2021/12/02 09:42:47;;;;;;;3.00;1.40;;;4.80;99.90;;;;;;4883170;29;20213;-32
2021/12/02 09:45:16;;;;;;;3.77;1.67;;;4.80;99.90;;;;;;4894256;29;20228;-34
2021/12/02 09:47:47;;;;;;;5.50;2.20;;;4.90;99.90;;;;;;4891149;29;20665;-32
2021/12/02 09:50:38;;;;;;;8.90;2.30;;;4.90;99.90;;;;;;4875890;29;20203;-34
2021/12/02 09:53:12;;;;;;;8.17;3.70;;;5.00;99.90;;;;;;4874869;29;20214;-33
2021/12/02 09:56:02;;;;;;;9.30;3.50;;;5.00;99.90;;;;;;4875299;29;20755;-33
2021/12/02 09:58:30;;;;;;;9.13;3.17;;;5.10;99.90;;;;;;4874632;29;20820;-34
2021/12/02 10:01:14;;;;;;;10.90;3.27;;;5.20;99.90;;;;;;4885370;29;20213;-34
2021/12/02 10:03:45;;;;;;;8.00;3.57;;;5.20;99.90;;;;;;4875563;29;20219;-34
2021/12/02 10:06:19;;;;;;;11.67;3.60;;;5.20;99.90;;;;;;4875710;29;20206;-34
2021/12/02 10:08:54;;;;;;;14.33;4.07;;;5.30;99.90;;;;;;4882974;29;20351;-34
2021/12/02 10:11:38;;;;;;;11.97;3.23;;;5.30;99.90;;;;;;4894589;29;20500;-33
2021/12/02 10:14:14;;;;;;;10.83;3.93;;;5.30;99.90;;;;;;4895581;29;20263;-34
2021/12/02 10:16:45;;;;;;;7.37;3.13;;;5.30;99.90;;;;;;4885367;29;20214;-34
2021/12/02 10:19:18;;;;;;;6.83;3.37;;;5.30;99.90;;;;;;4893647;29;20222;-35
2021/12/02 10:21:56;;;;;;;9.70;3.50;;;5.30;99.90;;;;;;4898383;29;20256;-34
2021/12/02 10:24:26;;;;;;;10.00;3.40;;;5.30;99.90;;;;;;4889718;29;20197;-34
2021/12/02 10:27:03;;;;;;;10.37;3.60;;;5.20;99.90;;;;;;4892807;29;20638;-35
2021/12/02 10:29:47;;;;;;;8.43;3.20;;;5.20;99.90;;;;;;4894089;29;20222;-35
2021/12/02 10:32:21;;;;;;;9.83;3.53;;;5.20;99.90;;;;;;4893415;29;20214;-34
2021/12/02 10:34:55;;;;;;;9.23;3.50;;;5.20;99.90;;;;;;4893611;29;20205;-35
2021/12/02 10:37:28;;;;;;;11.60;3.40;;;5.20;99.90;;;;;;4892552;29;20233;-35
2021/12/02 10:40:03;;;;;;;5.87;2.87;;;5.20;99.90;;;;;;4892981;29;20212;-34
2021/12/02 10:42:34;;;;;;;6.57;2.63;;;5.20;99.90;;;;;;4892943;29;20679;-34
2021/12/02 10:45:04;;;;;;;8.23;3.00;;;5.30;99.90;;;;;;4876375;29;20557;-35
2021/12/02 10:47:33;;;;;;;5.47;2.00;;;5.20;99.90;;;;;;4906235;29;20248;-34
2021/12/02 10:50:07;;;;;;;6.83;2.03;;;5.30;99.90;;;;;;4892779;29;20590;-35
2021/12/02 10:52:35;;;;;;;6.33;2.30;;;5.30;99.90;;;;;;4892698;29;20308;-35
2021/12/02 10:55:15;;;;;;;4.90;1.57;;;5.30;99.90;;;;;;4853623;29;20254;-34
2021/12/02 10:57:50;;;;;;;4.00;1.57;;;5.40;99.90;;;;;;4855988;29;20765;-34
2021/12/02 11:00:24;;;;;;;5.37;2.23;;;5.40;99.90;;;;;;4862953;29;20204;-34
2021/12/02 11:02:54;;;;;;;3.40;1.33;;;5.40;99.90;;;;;;4887239;29;20202;-35
2021/12/02 11:05:29;;;;;;;4.07;1.37;;;5.40;99.90;;;;;;4886530;29;20210;-35
2021/12/02 11:08:06;;;;;;;4.43;1.20;;;5.40;99.90;;;;;;4891183;29;20216;-35
2021/12/02 11:10:41;;;;;;;1.47;1.00;;;5.40;99.90;;;;;;4873158;29;20665;-33
2021/12/02 11:13:10;;;;;;;3.63;1.30;;;5.40;99.90;;;;;;4870775;29;20723;-34
2021/12/02 11:15:39;;;;;;;4.00;1.10;;;5.40;99.90;;;;;;4873651;29;20218;-34
2021/12/02 11:18:12;;;;;;;2.93;1.00;;;5.40;99.90;;;;;;4882914;29;20618;-35
2021/12/02 11:20:43;;;;;;;1.93;0.93;;;5.40;99.90;;;;;;4872428;29;20218;-34
2021/12/02 11:23:10;;;;;;;4.53;1.10;;;5.30;99.90;;;;;;4874385;29;20258;-36
2021/12/02 11:25:53;;;;;;;2.33;0.90;;;5.30;99.90;;;;;;4874001;29;20215;-35
2021/12/02 11:28:24;;;;;;;1.63;1.07;;;5.20;99.90;;;;;;4873508;29;20624;-37
2021/12/02 11:30:54;;;;;;;1.17;0.70;;;5.20;99.90;;;;;;4873501;29;20234;-35
2021/12/02 11:33:35;;;;;;;2.13;0.80;;;5.10;99.90;;;;;;4874907;29;20221;-34
2021/12/02 11:36:16;;;;;;;1.23;1.00;;;5.10;99.90;;;;;;4885195;29;20216;-33
2021/12/02 11:38:46;;;;;;;1.53;0.80;;;5.00;99.90;;;;;;4882535;29;20238;-35
2021/12/02 11:41:16;;;;;;;1.80;1.20;;;5.00;99.90;;;;;;4874282;29;20206;-35
2021/12/02 11:43:45;;;;;;;1.60;1.00;;;5.00;99.90;;;;;;4870948;29;20285;-35
2021/12/02 11:46:12;;;;;;;1.60;1.20;;;5.00;99.90;;;;;;4856688;29;20331;-34
2021/12/02 11:48:42;;;;;;;4.33;1.60;;;5.00;99.90;;;;;;4863935;29;20358;-35
2021/12/02 11:51:18;;;;;;;2.13;1.40;;;5.00;99.90;;;;;;4855688;29;20223;-35
2021/12/02 11:53:46;;;;;;;3.87;1.57;;;5.00;99.90;;;;;;4862779;29;20507;-34
2021/12/02 11:56:20;;;;;;;2.63;1.20;;;5.00;99.90;;;;;;4887286;29;20218;-35
2021/12/02 11:58:48;;;;;;;2.70;1.43;;;5.00;99.90;;;;;;4892681;29;20233;-35
2021/12/02 12:01:19;;;;;;;2.60;1.27;;;5.00;99.90;;;;;;4875438;29;20210;-34
2021/12/02 12:03:54;;;;;;;1.33;1.20;;;5.10;99.90;;;;;;4892267;29;20210;-33
2021/12/02 12:06:29;;;;;;;2.23;1.37;;;5.10;99.90;;;;;;4889977;29;20312;-34
2021/12/02 12:08:59;;;;;;;2.70;1.40;;;5.10;99.90;;;;;;4897654;29;20217;-34
2021/12/02 12:11:28;;;;;;;2.13;1.10;;;5.10;99.90;;;;;;4881603;29;20205;-34
2021/12/02 12:14:02;;;;;;;3.37;1.50;;;5.20;99.90;;;;;;4888583;29;20278;-34
2021/12/02 12:16:41;;;;;;;3.43;1.70;;;5.20;99.90;;;;;;4893416;29;20557;-33
2021/12/02 12:19:28;;;;;;;2.13;1.20;;;5.30;99.90;;;;;;4910886;29;20225;-31
2021/12/02 12:22:00;;;;;;;7.10;1.90;;;5.30;99.90;;;;;;4896556;29;20286;-31
2021/12/02 12:24:47;;;;;;;4.77;2.00;;;5.30;99.90;;;;;;4897212;29;20218;-31
2021/12/02 12:27:19;;;;;;;1.87;1.50;;;5.30;99.90;;;;;;4879806;29;20200;-30
2021/12/02 12:30:08;;;;;;;3.30;1.60;;;5.40;99.90;;;;;;4900418;29;20594;-30
2021/12/02 12:32:50;;;;;;;2.23;1.33;;;5.40;99.90;;;;;;4891599;29;20201;-31
2021/12/02 12:35:34;;;;;;;2.53;1.50;;;5.40;99.90;;;;;;4899435;29;20563;-30
2021/12/02 12:38:25;;;;;;;1.17;0.90;;;5.40;99.90;;;;;;4894777;29;20715;-31
2021/12/02 12:41:01;;;;;;;1.77;1.07;;;5.50;99.90;;;;;;4891786;29;20244;-30
2021/12/02 12:43:39;;;;;;;3.40;1.43;;;5.50;99.90;;;;;;4891532;29;20217;-31
2021/12/02 12:46:24;;;;;;;2.30;1.50;;;5.60;99.90;;;;;;4888953;29;20234;-30
2021/12/02 12:48:57;;;;;;;1.63;1.33;;;5.60;99.90;;;;;;4903020;29;20217;-31
2021/12/02 12:51:26;;;;;;;2.30;1.47;;;5.60;99.90;;;;;;4895733;29;20225;-32
2021/12/02 12:54:01;;;;;;;2.47;1.53;;;5.70;99.90;;;;;;4893438;29;20650;-31
2021/12/02 12:56:31;;;;;;;1.93;1.40;;;5.70;99.90;;;;;;4882950;29;20214;-31
2021/12/02 12:59:02;;;;;;;4.27;2.50;;;5.70;99.90;;;;;;4878501;29;20221;-31
2021/12/02 13:01:33;;;;;;;5.83;2.73;;;5.70;99.90;;;;;;4913879;29;20243;-32
2021/12/02 13:04:08;;;;;;;4.53;2.60;;;5.80;99.90;;;;;;4888428;29;20209;-30
2021/12/02 13:07:06;;;;;;;4.27;2.60;;;5.80;99.90;;;;;;4904773;29;20319;-30
2021/12/02 13:10:02;;;;;;;4.17;2.90;;;5.80;99.90;;;;;;4876372;29;20255;-32
2021/12/02 13:12:57;;;;;;;3.10;2.53;;;5.90;99.90;;;;;;4900209;29;20212;-30
2021/12/02 13:15:28;;;;;;;3.63;2.97;;;5.90;99.90;;;;;;4881659;29;20304;-31
2021/12/02 13:17:57;;;;;;;2.80;2.20;;;6.00;99.90;;;;;;4879456;29;20322;-31
2021/12/02 13:20:34;;;;;;;3.53;2.40;;;6.00;99.90;;;;;;4877993;29;20201;-31
2021/12/02 13:23:16;;;;;;;2.83;2.23;;;6.10;99.90;;;;;;4894152;29;20209;-31
2021/12/02 13:26:15;;;;;;;2.60;2.03;;;6.20;99.90;;;;;;4897819;29;20205;-32
2021/12/02 13:28:46;;;;;;;2.67;1.90;;;6.20;99.90;;;;;;4867044;29;20320;-31
2021/12/02 13:31:15;;;;;;;2.13;1.80;;;6.20;99.90;;;;;;4879460;29;20528;-31
2021/12/02 13:34:02;;;;;;;2.93;1.80;;;6.30;99.90;;;;;;4880933;29;20212;-30
2021/12/02 13:36:44;;;;;;;2.20;1.37;;;6.30;99.90;;;;;;4863946;29;20193;-31
2021/12/02 13:39:16;;;;;;;3.13;1.20;;;6.20;99.90;;;;;;4886636;29;20225;-32